sensor_id;sensor_type;location;lat;lon;timestamp;temperature;humidity
55173;DHT22;41061;52.822;6.860;2023-08-24T00:00:55;16.90;99.90
55173;DHT22;41061;52.822;6.860;2023-08-24T00:03:21;16.90;99.90
55173;DHT22;41061;52.822;6.860;2023-08-24T00:05:48;16.90;99.90
55173;DHT22;41061;52.822;6.860;2023-08-24T00:08:14;16.90;99.90
55173;DHT22;41061;52.822;6.860;2023-08-24T00:10:43;16.80;99.90
55173;DHT22;41061;52.822;6.860;2023-08-24T00:13:09;16.80;99.90
55173;DHT22;41061;52.822;6.860;2023-08-24T00:15:35;16.80;99.90
55173;DHT22;41061;52.822;6.860;2023-08-24T00:18:02;16.80;99.90
55173;DHT22;41061;52.822;6.860;2023-08-24T00:20:28;16.70;99.90
55173;DHT22;41061;52.822;6.860;2023-08-24T00:22:54;16.70;99.90
55173;DHT22;41061;52.822;6.860;2023-08-24T00:25:19;16.60;99.90
55173;DHT22;41061;52.822;6.860;2023-08-24T00:27:45;16.50;99.90
55173;DHT22;41061;52.822;6.860;2023-08-24T00:30:11;16.50;99.90
55173;DHT22;41061;52.822;6.860;2023-08-24T00:32:37;16.40;99.90
55173;DHT22;41061;52.822;6.860;2023-08-24T00:35:06;16.40;99.90
55173;DHT22;41061;52.822;6.860;2023-08-24T00:37:34;16.30;99.90
55173;DHT22;41061;52.822;6.860;2023-08-24T00:40:00;16.60;99.90
55173;DHT22;41061;52.822;6.860;2023-08-24T00:42:30;16.30;99.90
55173;DHT22;41061;52.822;6.860;2023-08-24T00:44:57;16.30;99.90
55173;DHT22;41061;52.822;6.860;2023-08-24T00:47:24;16.30;99.90
55173;DHT22;41061;52.822;6.860;2023-08-24T00:49:50;16.20;99.90
55173;DHT22;41061;52.822;6.860;2023-08-24T00:52:16;16.20;99.90
55173;DHT22;41061;52.822;6.860;2023-08-24T00:54:42;16.20;99.90
55173;DHT22;41061;52.822;6.860;2023-08-24T00:57:09;16.20;99.90
55173;DHT22;41061;52.822;6.860;2023-08-24T00:59:35;16.20;99.90
55173;DHT22;41061;52.822;6.860;2023-08-24T01:02:02;16.10;99.90
55173;DHT22;41061;52.822;6.860;2023-08-24T01:04:27;16.10;99.90
55173;DHT22;41061;52.822;6.860;2023-08-24T01:06:53;16.10;99.90
55173;DHT22;41061;52.822;6.860;2023-08-24T01:09:20;16.10;99.90
55173;DHT22;41061;52.822;6.860;2023-08-24T01:12:17;16.10;99.90
55173;DHT22;41061;52.822;6.860;2023-08-24T01:17:14;16.10;99.90
55173;DHT22;41061;52.822;6.860;2023-08-24T01:19:43;16.10;99.90
55173;DHT22;41061;52.822;6.860;2023-08-24T01:22:47;16.10;99.90
55173;DHT22;41061;52.822;6.860;2023-08-24T01:25:43;16.00;99.90
55173;DHT22;41061;52.822;6.860;2023-08-24T01:28:11;16.00;99.90
55173;DHT22;41061;52.822;6.860;2023-08-24T01:30:38;16.00;99.90
55173;DHT22;41061;52.822;6.860;2023-08-24T01:33:04;15.90;99.90
55173;DHT22;41061;52.822;6.860;2023-08-24T01:35:30;15.90;99.90
55173;DHT22;41061;52.822;6.860;2023-08-24T01:37:58;15.90;99.90
55173;DHT22;41061;52.822;6.860;2023-08-24T01:40:39;16.00;99.90
55173;DHT22;41061;52.822;6.860;2023-08-24T01:43:10;16.10;99.90
55173;DHT22;41061;52.822;6.860;2023-08-24T01:45:41;16.10;99.90
55173;DHT22;41061;52.822;6.860;2023-08-24T01:48:09;16.10;99.90
55173;DHT22;41061;52.822;6.860;2023-08-24T01:50:35;16.20;99.90
55173;DHT22;41061;52.822;6.860;2023-08-24T01:53:02;16.20;99.90
55173;DHT22;41061;52.822;6.860;2023-08-24T01:55:28;16.20;99.90
55173;DHT22;41061;52.822;6.860;2023-08-24T01:57:55;16.20;99.90
55173;DHT22;41061;52.822;6.860;2023-08-24T02:00:21;16.20;99.90
55173;DHT22;41061;52.822;6.860;2023-08-24T02:02:47;16.20;99.90
55173;DHT22;41061;52.822;6.860;2023-08-24T02:05:12;16.20;99.90
55173;DHT22;41061;52.822;6.860;2023-08-24T02:07:39;16.20;99.90
55173;DHT22;41061;52.822;6.860;2023-08-24T02:10:06;16.20;99.90
55173;DHT22;41061;52.822;6.860;2023-08-24T02:12:32;16.20;99.90
55173;DHT22;41061;52.822;6.860;2023-08-24T02:14:58;16.20;99.90
55173;DHT22;41061;52.822;6.860;2023-08-24T02:17:25;16.30;99.90
55173;DHT22;41061;52.822;6.860;2023-08-24T02:19:51;16.30;99.90
55173;DHT22;41061;52.822;6.860;2023-08-24T02:22:17;16.40;99.90
55173;DHT22;41061;52.822;6.860;2023-08-24T02:24:43;16.40;99.90
55173;DHT22;41061;52.822;6.860;2023-08-24T02:27:08;16.40;99.90
55173;DHT22;41061;52.822;6.860;2023-08-24T02:29:34;16.50;99.90
55173;DHT22;41061;52.822;6.860;2023-08-24T02:31:59;16.40;99.90
55173;DHT22;41061;52.822;6.860;2023-08-24T02:34:25;16.40;99.90
55173;DHT22;41061;52.822;6.860;2023-08-24T02:36:52;16.50;99.90
55173;DHT22;41061;52.822;6.860;2023-08-24T02:39:17;16.50;99.90
55173;DHT22;41061;52.822;6.860;2023-08-24T02:41:43;16.50;99.90
55173;DHT22;41061;52.822;6.860;2023-08-24T02:44:09;16.60;99.90
55173;DHT22;41061;52.822;6.860;2023-08-24T02:46:35;16.60;99.90
55173;DHT22;41061;52.822;6.860;2023-08-24T02:49:00;16.50;99.90
55173;DHT22;41061;52.822;6.860;2023-08-24T02:51:26;16.40;99.90
55173;DHT22;41061;52.822;6.860;2023-08-24T02:53:52;16.40;99.90
55173;DHT22;41061;52.822;6.860;2023-08-24T02:56:18;16.40;99.90
55173;DHT22;41061;52.822;6.860;2023-08-24T02:58:43;16.40;99.90
55173;DHT22;41061;52.822;6.860;2023-08-24T03:01:09;16.40;99.90
55173;DHT22;41061;52.822;6.860;2023-08-24T03:03:36;16.50;99.90
55173;DHT22;41061;52.822;6.860;2023-08-24T03:06:06;16.50;99.90
55173;DHT22;41061;52.822;6.860;2023-08-24T03:08:33;16.40;99.90
55173;DHT22;41061;52.822;6.860;2023-08-24T03:11:00;16.40;99.90
55173;DHT22;41061;52.822;6.860;2023-08-24T03:13:26;16.30;99.90
55173;DHT22;41061;52.822;6.860;2023-08-24T03:15:52;16.30;99.90
55173;DHT22;41061;52.822;6.860;2023-08-24T03:18:18;16.30;99.90
55173;DHT22;41061;52.822;6.860;2023-08-24T03:20:45;16.30;99.90
55173;DHT22;41061;52.822;6.860;2023-08-24T03:23:12;16.30;99.90
55173;DHT22;41061;52.822;6.860;2023-08-24T03:25:39;16.30;99.90
55173;DHT22;41061;52.822;6.860;2023-08-24T03:28:06;16.30;99.90
55173;DHT22;41061;52.822;6.860;2023-08-24T03:30:34;16.40;99.90
55173;DHT22;41061;52.822;6.860;2023-08-24T03:33:00;16.30;99.90
55173;DHT22;41061;52.822;6.860;2023-08-24T03:35:28;16.40;99.90
55173;DHT22;41061;52.822;6.860;2023-08-24T03:37:54;16.40;99.90
55173;DHT22;41061;52.822;6.860;2023-08-24T03:40:19;16.60;99.90
55173;DHT22;41061;52.822;6.860;2023-08-24T03:42:45;16.40;99.90
55173;DHT22;41061;52.822;6.860;2023-08-24T03:45:11;16.40;99.90
55173;DHT22;41061;52.822;6.860;2023-08-24T03:47:37;16.50;99.90
55173;DHT22;41061;52.822;6.860;2023-08-24T03:50:03;16.40;99.90
55173;DHT22;41061;52.822;6.860;2023-08-24T03:52:28;16.50;99.90
55173;DHT22;41061;52.822;6.860;2023-08-24T03:54:54;16.40;99.90
55173;DHT22;41061;52.822;6.860;2023-08-24T03:57:20;16.40;99.90
55173;DHT22;41061;52.822;6.860;2023-08-24T03:59:46;16.30;99.90
55173;DHT22;41061;52.822;6.860;2023-08-24T04:02:11;16.50;99.90
55173;DHT22;41061;52.822;6.860;2023-08-24T04:04:37;16.30;99.90
55173;DHT22;41061;52.822;6.860;2023-08-24T04:07:03;16.30;99.90
55173;DHT22;41061;52.822;6.860;2023-08-24T04:09:28;16.30;99.90
55173;DHT22;41061;52.822;6.860;2023-08-24T04:11:54;16.20;99.90
55173;DHT22;41061;52.822;6.860;2023-08-24T04:14:20;16.20;99.90
55173;DHT22;41061;52.822;6.860;2023-08-24T04:16:45;16.10;99.90
55173;DHT22;41061;52.822;6.860;2023-08-24T04:19:13;16.40;99.90
55173;DHT22;41061;52.822;6.860;2023-08-24T04:21:38;16.10;99.90
55173;DHT22;41061;52.822;6.860;2023-08-24T04:24:04;16.00;99.90
55173;DHT22;41061;52.822;6.860;2023-08-24T04:26:30;15.90;99.90
55173;DHT22;41061;52.822;6.860;2023-08-24T04:28:56;15.80;99.90
55173;DHT22;41061;52.822;6.860;2023-08-24T04:31:22;15.80;99.90
55173;DHT22;41061;52.822;6.860;2023-08-24T04:33:48;15.80;99.90
55173;DHT22;41061;52.822;6.860;2023-08-24T04:36:13;15.70;99.90
55173;DHT22;41061;52.822;6.860;2023-08-24T04:38:39;16.30;99.90
55173;DHT22;41061;52.822;6.860;2023-08-24T04:41:07;15.80;99.90
55173;DHT22;41061;52.822;6.860;2023-08-24T04:43:34;15.70;99.90
55173;DHT22;41061;52.822;6.860;2023-08-24T04:45:59;15.70;99.90
55173;DHT22;41061;52.822;6.860;2023-08-24T04:48:25;15.70;99.90
55173;DHT22;41061;52.822;6.860;2023-08-24T04:50:52;15.70;99.90
55173;DHT22;41061;52.822;6.860;2023-08-24T04:53:22;15.70;99.90
55173;DHT22;41061;52.822;6.860;2023-08-24T04:55:48;15.60;99.90
55173;DHT22;41061;52.822;6.860;2023-08-24T04:58:14;15.80;99.90
55173;DHT22;41061;52.822;6.860;2023-08-24T05:00:40;15.60;99.90
55173;DHT22;41061;52.822;6.860;2023-08-24T05:03:06;15.50;99.90
55173;DHT22;41061;52.822;6.860;2023-08-24T05:05:33;15.50;99.90
55173;DHT22;41061;52.822;6.860;2023-08-24T05:08:00;15.70;99.90
55173;DHT22;41061;52.822;6.860;2023-08-24T05:10:29;15.80;99.90
55173;DHT22;41061;52.822;6.860;2023-08-24T05:12:55;15.60;99.90
55173;DHT22;41061;52.822;6.860;2023-08-24T05:15:20;15.80;99.90
55173;DHT22;41061;52.822;6.860;2023-08-24T05:17:46;15.80;99.90
55173;DHT22;41061;52.822;6.860;2023-08-24T05:20:12;15.90;99.90
55173;DHT22;41061;52.822;6.860;2023-08-24T05:22:38;16.00;99.90
55173;DHT22;41061;52.822;6.860;2023-08-24T05:25:04;16.00;99.90
55173;DHT22;41061;52.822;6.860;2023-08-24T05:27:30;16.10;99.90
55173;DHT22;41061;52.822;6.860;2023-08-24T05:29:57;16.10;99.90
55173;DHT22;41061;52.822;6.860;2023-08-24T05:32:23;16.20;99.90
55173;DHT22;41061;52.822;6.860;2023-08-24T05:34:48;16.30;99.90
55173;DHT22;41061;52.822;6.860;2023-08-24T05:37:14;16.30;99.90
55173;DHT22;41061;52.822;6.860;2023-08-24T05:39:40;16.40;99.90
55173;DHT22;41061;52.822;6.860;2023-08-24T05:42:06;16.50;99.90
55173;DHT22;41061;52.822;6.860;2023-08-24T05:44:32;16.60;99.90
55173;DHT22;41061;52.822;6.860;2023-08-24T05:46:57;16.70;99.90
55173;DHT22;41061;52.822;6.860;2023-08-24T05:49:23;16.80;99.90
55173;DHT22;41061;52.822;6.860;2023-08-24T05:51:51;16.80;99.90
55173;DHT22;41061;52.822;6.860;2023-08-24T05:54:17;16.90;99.90
55173;DHT22;41061;52.822;6.860;2023-08-24T05:56:46;16.90;99.90
55173;DHT22;41061;52.822;6.860;2023-08-24T05:59:11;16.90;99.90
55173;DHT22;41061;52.822;6.860;2023-08-24T06:01:38;16.90;99.90
55173;DHT22;41061;52.822;6.860;2023-08-24T06:04:08;16.90;99.90
55173;DHT22;41061;52.822;6.860;2023-08-24T06:06:34;17.00;99.90
55173;DHT22;41061;52.822;6.860;2023-08-24T06:09:00;17.10;99.90
55173;DHT22;41061;52.822;6.860;2023-08-24T06:11:26;17.10;99.90
55173;DHT22;41061;52.822;6.860;2023-08-24T06:13:52;17.30;99.90
55173;DHT22;41061;52.822;6.860;2023-08-24T06:16:20;17.30;99.90
55173;DHT22;41061;52.822;6.860;2023-08-24T06:18:46;17.40;99.90
55173;DHT22;41061;52.822;6.860;2023-08-24T06:21:12;17.50;99.90
55173;DHT22;41061;52.822;6.860;2023-08-24T06:23:38;17.60;99.90
55173;DHT22;41061;52.822;6.860;2023-08-24T06:26:04;17.70;99.90
55173;DHT22;41061;52.822;6.860;2023-08-24T06:28:30;17.80;99.90
55173;DHT22;41061;52.822;6.860;2023-08-24T06:30:56;17.90;99.90
55173;DHT22;41061;52.822;6.860;2023-08-24T06:33:27;18.00;99.90
55173;DHT22;41061;52.822;6.860;2023-08-24T06:35:59;18.10;99.90
55173;DHT22;41061;52.822;6.860;2023-08-24T06:38:26;18.10;99.90
55173;DHT22;41061;52.822;6.860;2023-08-24T06:40:52;18.10;99.90
55173;DHT22;41061;52.822;6.860;2023-08-24T06:43:19;18.30;99.90
55173;DHT22;41061;52.822;6.860;2023-08-24T06:45:44;18.30;99.90
55173;DHT22;41061;52.822;6.860;2023-08-24T06:48:10;18.30;99.90
55173;DHT22;41061;52.822;6.860;2023-08-24T06:50:36;18.40;99.90
55173;DHT22;41061;52.822;6.860;2023-08-24T06:53:03;18.40;99.90
55173;DHT22;41061;52.822;6.860;2023-08-24T06:55:29;18.50;99.90
55173;DHT22;41061;52.822;6.860;2023-08-24T06:57:55;18.60;99.90
55173;DHT22;41061;52.822;6.860;2023-08-24T07:00:21;18.60;99.90
55173;DHT22;41061;52.822;6.860;2023-08-24T07:02:47;18.70;99.90
55173;DHT22;41061;52.822;6.860;2023-08-24T07:05:14;18.90;99.90
55173;DHT22;41061;52.822;6.860;2023-08-24T07:07:40;19.00;99.90
55173;DHT22;41061;52.822;6.860;2023-08-24T07:10:09;19.10;99.90
55173;DHT22;41061;52.822;6.860;2023-08-24T07:12:35;19.20;99.90
55173;DHT22;41061;52.822;6.860;2023-08-24T07:15:01;19.30;99.90
55173;DHT22;41061;52.822;6.860;2023-08-24T07:17:28;19.40;99.90
55173;DHT22;41061;52.822;6.860;2023-08-24T07:19:54;19.80;99.90
55173;DHT22;41061;52.822;6.860;2023-08-24T07:22:20;19.70;99.90
55173;DHT22;41061;52.822;6.860;2023-08-24T07:24:45;19.80;99.90
55173;DHT22;41061;52.822;6.860;2023-08-24T07:27:11;19.90;99.90
55173;DHT22;41061;52.822;6.860;2023-08-24T07:29:37;19.90;99.90
55173;DHT22;41061;52.822;6.860;2023-08-24T07:32:03;20.10;99.90
55173;DHT22;41061;52.822;6.860;2023-08-24T07:34:29;20.10;99.90
55173;DHT22;41061;52.822;6.860;2023-08-24T07:36:55;20.20;99.90
55173;DHT22;41061;52.822;6.860;2023-08-24T07:39:20;20.30;99.90
55173;DHT22;41061;52.822;6.860;2023-08-24T07:41:46;20.40;99.90
55173;DHT22;41061;52.822;6.860;2023-08-24T07:44:12;20.50;99.90
55173;DHT22;41061;52.822;6.860;2023-08-24T07:46:41;20.50;99.90
55173;DHT22;41061;52.822;6.860;2023-08-24T07:49:07;20.60;99.90
55173;DHT22;41061;52.822;6.860;2023-08-24T07:51:33;20.60;99.90
55173;DHT22;41061;52.822;6.860;2023-08-24T07:54:00;20.70;99.90
55173;DHT22;41061;52.822;6.860;2023-08-24T07:56:25;20.90;99.90
55173;DHT22;41061;52.822;6.860;2023-08-24T07:58:51;21.00;99.90
55173;DHT22;41061;52.822;6.860;2023-08-24T08:01:17;21.10;99.90
55173;DHT22;41061;52.822;6.860;2023-08-24T08:03:42;21.20;99.90
55173;DHT22;41061;52.822;6.860;2023-08-24T08:06:08;21.30;99.90
55173;DHT22;41061;52.822;6.860;2023-08-24T08:08:34;21.40;99.90
55173;DHT22;41061;52.822;6.860;2023-08-24T08:11:01;21.50;99.90
55173;DHT22;41061;52.822;6.860;2023-08-24T08:13:30;21.60;99.90
55173;DHT22;41061;52.822;6.860;2023-08-24T08:16:03;21.70;99.90
55173;DHT22;41061;52.822;6.860;2023-08-24T15:34:47;23.70;99.90
55173;DHT22;41061;52.822;6.860;2023-08-24T15:37:13;23.70;99.90
55173;DHT22;41061;52.822;6.860;2023-08-24T15:39:39;23.70;99.90
55173;DHT22;41061;52.822;6.860;2023-08-24T15:42:06;23.70;99.90
55173;DHT22;41061;52.822;6.860;2023-08-24T15:44:32;23.70;99.90
55173;DHT22;41061;52.822;6.860;2023-08-24T15:46:59;23.70;99.90
55173;DHT22;41061;52.822;6.860;2023-08-24T15:49:24;23.70;99.90
55173;DHT22;41061;52.822;6.860;2023-08-24T15:51:51;23.70;99.90
55173;DHT22;41061;52.822;6.860;2023-08-24T15:54:17;23.70;99.90
55173;DHT22;41061;52.822;6.860;2023-08-24T15:56:43;23.70;99.90
55173;DHT22;41061;52.822;6.860;2023-08-24T15:59:11;23.70;99.90
55173;DHT22;41061;52.822;6.860;2023-08-24T16:01:38;23.60;99.90
55173;DHT22;41061;52.822;6.860;2023-08-24T16:04:04;23.60;99.90
55173;DHT22;41061;52.822;6.860;2023-08-24T16:06:31;23.50;99.90
55173;DHT22;41061;52.822;6.860;2023-08-24T16:08:57;23.60;99.90
55173;DHT22;41061;52.822;6.860;2023-08-24T16:11:22;23.60;99.90
55173;DHT22;41061;52.822;6.860;2023-08-24T16:13:49;23.70;99.90
55173;DHT22;41061;52.822;6.860;2023-08-24T16:16:15;23.60;99.90
55173;DHT22;41061;52.822;6.860;2023-08-24T16:18:41;23.70;99.90
55173;DHT22;41061;52.822;6.860;2023-08-24T16:21:07;23.70;99.90
55173;DHT22;41061;52.822;6.860;2023-08-24T16:23:32;23.60;99.90
55173;DHT22;41061;52.822;6.860;2023-08-24T16:25:58;23.60;99.90
55173;DHT22;41061;52.822;6.860;2023-08-24T16:28:25;23.60;99.90
55173;DHT22;41061;52.822;6.860;2023-08-24T16:30:51;23.50;99.90
55173;DHT22;41061;52.822;6.860;2023-08-24T16:33:17;23.50;99.90
55173;DHT22;41061;52.822;6.860;2023-08-24T16:35:44;23.40;99.90
55173;DHT22;41061;52.822;6.860;2023-08-24T16:38:10;23.50;99.90
55173;DHT22;41061;52.822;6.860;2023-08-24T16:40:36;23.60;99.90
55173;DHT22;41061;52.822;6.860;2023-08-24T16:43:02;23.60;99.90
55173;DHT22;41061;52.822;6.860;2023-08-24T16:45:28;23.60;99.90
55173;DHT22;41061;52.822;6.860;2023-08-24T16:47:54;23.70;99.90
55173;DHT22;41061;52.822;6.860;2023-08-24T19:02:06;22.80;99.90
55173;DHT22;41061;52.822;6.860;2023-08-24T19:04:32;22.90;99.90
55173;DHT22;41061;52.822;6.860;2023-08-24T19:06:58;22.80;99.90
55173;DHT22;41061;52.822;6.860;2023-08-24T19:09:24;22.70;99.90
55173;DHT22;41061;52.822;6.860;2023-08-24T19:11:49;22.70;99.90
55173;DHT22;41061;52.822;6.860;2023-08-24T19:14:15;22.70;99.90
55173;DHT22;41061;52.822;6.860;2023-08-24T19:16:41;22.60;99.90
55173;DHT22;41061;52.822;6.860;2023-08-24T19:19:07;22.50;99.90
55173;DHT22;41061;52.822;6.860;2023-08-24T19:21:33;22.50;99.90
55173;DHT22;41061;52.822;6.860;2023-08-24T19:23:58;22.40;99.90
55173;DHT22;41061;52.822;6.860;2023-08-24T19:26:24;22.40;99.90
55173;DHT22;41061;52.822;6.860;2023-08-24T19:28:50;22.30;99.90
55173;DHT22;41061;52.822;6.860;2023-08-24T19:31:16;22.20;99.90
55173;DHT22;41061;52.822;6.860;2023-08-24T19:33:41;22.20;99.90
55173;DHT22;41061;52.822;6.860;2023-08-24T19:36:07;22.20;99.90
55173;DHT22;41061;52.822;6.860;2023-08-24T19:38:33;22.10;99.90
55173;DHT22;41061;52.822;6.860;2023-08-24T19:41:02;22.10;99.90
55173;DHT22;41061;52.822;6.860;2023-08-24T19:43:28;22.10;99.90
55173;DHT22;41061;52.822;6.860;2023-08-24T19:45:54;22.00;99.90
55173;DHT22;41061;52.822;6.860;2023-08-24T19:48:20;22.00;99.90
55173;DHT22;41061;52.822;6.860;2023-08-24T19:50:47;21.90;99.90
55173;DHT22;41061;52.822;6.860;2023-08-24T19:53:13;21.90;99.90
55173;DHT22;41061;52.822;6.860;2023-08-24T19:55:39;21.90;99.90
55173;DHT22;41061;52.822;6.860;2023-08-24T19:58:04;21.80;99.90
55173;DHT22;41061;52.822;6.860;2023-08-24T20:00:30;21.80;99.90
55173;DHT22;41061;52.822;6.860;2023-08-24T20:02:58;21.80;99.90
55173;DHT22;41061;52.822;6.860;2023-08-24T20:05:25;21.80;99.90
55173;DHT22;41061;52.822;6.860;2023-08-24T20:07:52;21.80;99.90
55173;DHT22;41061;52.822;6.860;2023-08-24T20:10:18;21.70;99.90
55173;DHT22;41061;52.822;6.860;2023-08-24T20:12:45;21.70;99.90
55173;DHT22;41061;52.822;6.860;2023-08-24T20:15:11;21.70;99.90
55173;DHT22;41061;52.822;6.860;2023-08-24T20:17:46;21.70;99.90
55173;DHT22;41061;52.822;6.860;2023-08-24T20:20:14;21.60;99.90
55173;DHT22;41061;52.822;6.860;2023-08-24T20:22:45;21.60;99.90
55173;DHT22;41061;52.822;6.860;2023-08-24T20:25:12;21.50;99.90
55173;DHT22;41061;52.822;6.860;2023-08-24T20:27:38;21.50;99.90
55173;DHT22;41061;52.822;6.860;2023-08-24T20:30:06;21.50;99.90
55173;DHT22;41061;52.822;6.860;2023-08-24T20:32:32;21.50;99.90
55173;DHT22;41061;52.822;6.860;2023-08-24T20:35:02;21.50;99.90
55173;DHT22;41061;52.822;6.860;2023-08-24T20:37:28;21.50;99.90
55173;DHT22;41061;52.822;6.860;2023-08-24T20:39:54;21.40;99.90
55173;DHT22;41061;52.822;6.860;2023-08-24T20:42:21;21.40;99.90
55173;DHT22;41061;52.822;6.860;2023-08-24T20:44:51;21.40;99.90
55173;DHT22;41061;52.822;6.860;2023-08-24T20:47:18;21.40;99.90
55173;DHT22;41061;52.822;6.860;2023-08-24T20:49:45;21.40;99.90
55173;DHT22;41061;52.822;6.860;2023-08-24T20:52:14;21.40;99.90
55173;DHT22;41061;52.822;6.860;2023-08-24T20:54:41;21.40;99.90
55173;DHT22;41061;52.822;6.860;2023-08-24T20:57:07;21.30;99.90
55173;DHT22;41061;52.822;6.860;2023-08-24T20:59:32;21.30;99.90
55173;DHT22;41061;52.822;6.860;2023-08-24T21:01:58;21.30;99.90
55173;DHT22;41061;52.822;6.860;2023-08-24T21:04:24;21.30;99.90
55173;DHT22;41061;52.822;6.860;2023-08-24T21:06:50;21.30;99.90
55173;DHT22;41061;52.822;6.860;2023-08-24T21:09:15;21.30;99.90
55173;DHT22;41061;52.822;6.860;2023-08-24T21:11:41;21.20;99.90
55173;DHT22;41061;52.822;6.860;2023-08-24T21:14:07;21.20;99.90
55173;DHT22;41061;52.822;6.860;2023-08-24T21:16:33;21.20;99.90
55173;DHT22;41061;52.822;6.860;2023-08-24T21:18:59;21.20;99.90
55173;DHT22;41061;52.822;6.860;2023-08-24T21:21:25;21.20;99.90
55173;DHT22;41061;52.822;6.860;2023-08-24T21:23:50;21.20;99.90
55173;DHT22;41061;52.822;6.860;2023-08-24T21:26:18;21.20;99.90
55173;DHT22;41061;52.822;6.860;2023-08-24T21:28:44;21.20;99.90
55173;DHT22;41061;52.822;6.860;2023-08-24T21:31:10;21.10;99.90
55173;DHT22;41061;52.822;6.860;2023-08-24T21:33:35;21.10;99.90
55173;DHT22;41061;52.822;6.860;2023-08-24T21:36:01;21.10;99.90
55173;DHT22;41061;52.822;6.860;2023-08-24T21:38:30;21.10;99.90
55173;DHT22;41061;52.822;6.860;2023-08-24T21:40:56;21.10;99.90
55173;DHT22;41061;52.822;6.860;2023-08-24T21:43:22;21.10;99.90
55173;DHT22;41061;52.822;6.860;2023-08-24T21:45:59;21.00;99.90
55173;DHT22;41061;52.822;6.860;2023-08-24T21:48:26;21.00;99.90
55173;DHT22;41061;52.822;6.860;2023-08-24T21:50:52;21.00;99.90
55173;DHT22;41061;52.822;6.860;2023-08-24T21:53:18;21.00;99.90
55173;DHT22;41061;52.822;6.860;2023-08-24T21:55:45;21.00;99.90
55173;DHT22;41061;52.822;6.860;2023-08-24T21:58:13;21.00;99.90
55173;DHT22;41061;52.822;6.860;2023-08-24T22:00:40;21.00;99.90
55173;DHT22;41061;52.822;6.860;2023-08-24T22:03:06;21.00;99.90
55173;DHT22;41061;52.822;6.860;2023-08-24T22:05:32;20.90;99.90
55173;DHT22;41061;52.822;6.860;2023-08-24T22:07:58;20.90;99.90
55173;DHT22;41061;52.822;6.860;2023-08-24T22:10:25;20.90;99.90
55173;DHT22;41061;52.822;6.860;2023-08-24T22:12:51;20.80;99.90
55173;DHT22;41061;52.822;6.860;2023-08-24T22:15:16;20.80;99.90
55173;DHT22;41061;52.822;6.860;2023-08-24T22:17:42;20.70;99.90
55173;DHT22;41061;52.822;6.860;2023-08-24T22:20:08;20.70;99.90
55173;DHT22;41061;52.822;6.860;2023-08-24T22:22:37;20.70;99.90
55173;DHT22;41061;52.822;6.860;2023-08-24T22:25:03;20.60;99.90
55173;DHT22;41061;52.822;6.860;2023-08-24T22:27:29;20.60;99.90
55173;DHT22;41061;52.822;6.860;2023-08-24T22:29:57;20.60;99.90
55173;DHT22;41061;52.822;6.860;2023-08-24T22:32:23;20.60;99.90
55173;DHT22;41061;52.822;6.860;2023-08-24T22:34:49;20.60;99.90
55173;DHT22;41061;52.822;6.860;2023-08-24T22:37:15;20.60;99.90
55173;DHT22;41061;52.822;6.860;2023-08-24T22:39:40;20.60;99.90
55173;DHT22;41061;52.822;6.860;2023-08-24T22:42:06;20.50;99.90
55173;DHT22;41061;52.822;6.860;2023-08-24T22:44:33;20.60;99.90
55173;DHT22;41061;52.822;6.860;2023-08-24T22:46:59;20.60;99.90
55173;DHT22;41061;52.822;6.860;2023-08-24T22:49:25;20.50;99.90
55173;DHT22;41061;52.822;6.860;2023-08-24T22:51:51;20.50;99.90
55173;DHT22;41061;52.822;6.860;2023-08-24T22:54:17;20.50;99.90
55173;DHT22;41061;52.822;6.860;2023-08-24T22:56:43;20.60;99.90
55173;DHT22;41061;52.822;6.860;2023-08-24T22:59:09;20.60;99.90
55173;DHT22;41061;52.822;6.860;2023-08-24T23:01:35;20.60;99.90
55173;DHT22;41061;52.822;6.860;2023-08-24T23:04:02;20.60;99.90
55173;DHT22;41061;52.822;6.860;2023-08-24T23:06:53;20.60;99.90
55173;DHT22;41061;52.822;6.860;2023-08-24T23:09:28;20.50;99.90
55173;DHT22;41061;52.822;6.860;2023-08-24T23:11:54;20.50;99.90
55173;DHT22;41061;52.822;6.860;2023-08-24T23:14:19;20.50;99.90
55173;DHT22;41061;52.822;6.860;2023-08-24T23:16:46;20.50;99.90
55173;DHT22;41061;52.822;6.860;2023-08-24T23:19:12;20.40;99.90
55173;DHT22;41061;52.822;6.860;2023-08-24T23:21:37;20.40;99.90
55173;DHT22;41061;52.822;6.860;2023-08-24T23:24:03;20.40;99.90
55173;DHT22;41061;52.822;6.860;2023-08-24T23:26:30;20.40;99.90
55173;DHT22;41061;52.822;6.860;2023-08-24T23:28:55;20.40;99.90
55173;DHT22;41061;52.822;6.860;2023-08-24T23:31:21;20.30;99.90
55173;DHT22;41061;52.822;6.860;2023-08-24T23:33:47;20.30;99.90
55173;DHT22;41061;52.822;6.860;2023-08-24T23:36:13;20.30;99.90
55173;DHT22;41061;52.822;6.860;2023-08-24T23:38:38;20.20;99.90
55173;DHT22;41061;52.822;6.860;2023-08-24T23:41:05;20.20;99.90
55173;DHT22;41061;52.822;6.860;2023-08-24T23:43:32;20.20;99.90
55173;DHT22;41061;52.822;6.860;2023-08-24T23:45:58;20.20;99.90
55173;DHT22;41061;52.822;6.860;2023-08-24T23:48:23;20.20;99.90
55173;DHT22;41061;52.822;6.860;2023-08-24T23:50:50;20.10;99.90
55173;DHT22;41061;52.822;6.860;2023-08-24T23:53:16;20.10;99.90
55173;DHT22;41061;52.822;6.860;2023-08-24T23:55:42;20.10;99.90
55173;DHT22;41061;52.822;6.860;2023-08-24T23:58:09;20.10;99.90
